Time;durP1;ratioP1;P1;durP2;ratioP2;P2;SDS_P1;SDS_P2;PMS_P1;PMS_P2;Temp;Humidity;BMP_temperature;BMP_pressure;BME280_temperature;BME280_humidity;BME280_pressure;Samples;Min_cycle;Max_cycle;Signal;HPM_P1;HPM_P2
2022/10/13 00:01:08;;;;;;;0.10;0.10;;;9.30;99.90;;;;;;5031037;28;20654;-75
2022/10/13 00:03:36;;;;;;;0.10;0.10;;;9.30;99.90;;;;;;5031510;28;20616;-75
2022/10/13 00:06:07;;;;;;;0.10;0.10;;;9.30;99.90;;;;;;5031634;28;20629;-75
2022/10/13 00:08:36;;;;;;;0.10;0.10;;;9.20;99.90;;;;;;5030980;28;20203;-75
2022/10/13 00:11:10;;;;;;;0.10;0.10;;;9.40;99.90;;;;;;5031540;28;20728;-76
2022/10/13 00:13:40;;;;;;;0.10;0.10;;;9.40;99.90;;;;;;5030566;28;20202;-74
2022/10/13 00:16:09;;;;;;;0.10;0.10;;;9.40;99.90;;;;;;5030341;28;20219;-76
2022/10/13 00:18:38;;;;;;;0.10;0.10;;;9.40;99.90;;;;;;5031295;28;20199;-76
2022/10/13 00:21:08;;;;;;;0.10;0.10;;;9.50;99.90;;;;;;5031392;28;20218;-76
2022/10/13 00:23:37;;;;;;;0.00;0.00;;;9.50;99.90;;;;;;5030338;28;20203;-76
2022/10/13 00:26:07;;;;;;;0.10;0.10;;;9.40;99.90;;;;;;5029962;28;20738;-75
2022/10/13 00:28:36;;;;;;;0.00;0.00;;;9.40;99.90;;;;;;5030486;28;20198;-75
2022/10/13 00:31:15;;;;;;;0.10;0.10;;;9.40;99.90;;;;;;5027835;28;20708;-75
2022/10/13 00:33:43;;;;;;;0.10;0.10;;;9.30;99.90;;;;;;5034248;28;20194;-75
2022/10/13 00:36:13;;;;;;;0.10;0.10;;;9.30;99.90;;;;;;5033917;28;20641;-75
2022/10/13 00:38:40;;;;;;;0.00;0.00;;;9.20;99.90;;;;;;5034647;28;20600;-75
2022/10/13 00:41:10;;;;;;;0.10;0.10;;;9.30;99.90;;;;;;5034722;28;20757;-74
2022/10/13 00:43:58;;;;;;;0.10;0.10;;;9.20;99.90;;;;;;5034071;28;20572;-75
2022/10/13 00:46:29;;;;;;;0.10;0.10;;;9.20;99.90;;;;;;5033933;28;20675;-74
2022/10/13 00:49:00;;;;;;;0.10;0.10;;;9.30;99.90;;;;;;5033603;28;20925;-75
2022/10/13 00:51:33;;;;;;;0.10;0.10;;;9.30;99.90;;;;;;5032667;28;20731;-75
2022/10/13 00:54:03;;;;;;;0.10;0.10;;;9.40;99.90;;;;;;5027361;28;20635;-75
2022/10/13 00:56:32;;;;;;;0.10;0.10;;;9.30;99.90;;;;;;5033518;28;20223;-75
2022/10/13 00:59:01;;;;;;;0.10;0.10;;;9.40;99.90;;;;;;5026759;28;20265;-75
2022/10/13 01:01:31;;;;;;;0.10;0.10;;;9.40;99.90;;;;;;5033694;28;20211;-75
2022/10/13 01:03:58;;;;;;;0.10;0.10;;;9.50;99.90;;;;;;5026498;28;20256;-74
2022/10/13 01:06:27;;;;;;;0.10;0.10;;;9.50;99.90;;;;;;5031128;28;20231;-75
2022/10/13 01:08:55;;;;;;;0.10;0.10;;;9.50;99.90;;;;;;5033353;28;20198;-74
2022/10/13 01:11:37;;;;;;;0.10;0.10;;;9.60;99.90;;;;;;5033815;28;20222;-74
2022/10/13 01:14:17;;;;;;;0.10;0.10;;;9.60;99.90;;;;;;5026285;28;20455;-74
2022/10/13 01:16:53;;;;;;;0.10;0.10;;;9.70;99.90;;;;;;5032901;28;20222;-74
2022/10/13 01:20:01;;;;;;;0.10;0.10;;;9.70;99.90;;;;;;5033384;28;20282;-75
2022/10/13 01:22:42;;;;;;;0.10;0.10;;;9.80;99.90;;;;;;5029255;28;20226;-74
2022/10/13 01:25:25;;;;;;;0.10;0.10;;;9.80;99.90;;;;;;5026492;28;20264;-75
2022/10/13 01:28:13;;;;;;;0.10;0.10;;;9.80;99.90;;;;;;5028275;28;20195;-76
2022/10/13 01:30:46;;;;;;;0.00;0.00;;;9.60;99.90;;;;;;5034068;28;20273;-76
2022/10/13 01:33:24;;;;;;;0.10;0.10;;;9.70;99.90;;;;;;5033339;28;20202;-76
2022/10/13 01:35:59;;;;;;;0.10;0.10;;;9.70;99.90;;;;;;5033022;28;20231;-74
2022/10/13 01:38:36;;;;;;;0.00;0.00;;;9.70;99.90;;;;;;5033913;28;20257;-76
2022/10/13 01:41:11;;;;;;;0.10;0.10;;;9.80;99.90;;;;;;5033585;28;20226;-75
2022/10/13 01:43:46;;;;;;;0.10;0.10;;;9.60;99.90;;;;;;5031455;28;20585;-74
2022/10/13 01:46:20;;;;;;;0.10;0.10;;;9.70;99.90;;;;;;5033151;28;20306;-75
2022/10/13 01:48:51;;;;;;;0.10;0.10;;;9.70;99.90;;;;;;5032463;28;20207;-74
2022/10/13 01:51:21;;;;;;;0.10;0.10;;;9.80;99.90;;;;;;5033871;28;20199;-75
2022/10/13 01:53:52;;;;;;;0.10;0.10;;;9.70;99.90;;;;;;5033316;28;20195;-75
2022/10/13 01:56:20;;;;;;;0.10;0.10;;;9.70;99.90;;;;;;5030042;28;20230;-74
2022/10/13 01:58:50;;;;;;;0.10;0.10;;;9.60;99.90;;;;;;5033319;28;20850;-75
2022/10/13 02:01:34;;;;;;;0.10;0.10;;;9.70;99.90;;;;;;5032258;28;20199;-75
2022/10/13 02:04:14;;;;;;;0.00;0.00;;;9.80;99.90;;;;;;5026189;28;20199;-75
2022/10/13 02:06:47;;;;;;;0.05;0.05;;;9.80;99.90;;;;;;5032710;28;20223;-74
2022/10/13 02:09:25;;;;;;;0.10;0.10;;;9.80;99.90;;;;;;5033930;28;20249;-74
2022/10/13 02:11:58;;;;;;;0.10;0.10;;;9.90;99.90;;;;;;5027686;28;20257;-74
2022/10/13 02:14:33;;;;;;;0.10;0.10;;;9.90;99.90;;;;;;5034352;28;20225;-74
2022/10/13 02:17:04;;;;;;;0.10;0.10;;;9.80;99.90;;;;;;5034131;28;20281;-74
2022/10/13 02:19:37;;;;;;;0.10;0.10;;;9.80;99.90;;;;;;5035793;28;20653;-73
2022/10/13 02:22:06;;;;;;;0.10;0.10;;;9.60;99.90;;;;;;5035837;28;20230;-73
2022/10/13 02:24:34;;;;;;;0.00;0.00;;;9.70;99.90;;;;;;5041703;28;20203;-73
2022/10/13 02:27:05;;;;;;;0.10;0.10;;;9.60;99.90;;;;;;5035243;28;20300;-73
2022/10/13 02:29:33;;;;;;;0.10;0.10;;;9.70;99.90;;;;;;5034610;28;20217;-73
2022/10/13 02:32:02;;;;;;;0.08;0.08;;;9.70;99.90;;;;;;5030039;28;20199;-73
2022/10/13 02:34:30;;;;;;;0.10;0.10;;;9.80;99.90;;;;;;5031159;28;20257;-73
2022/10/13 02:36:58;;;;;;;0.10;0.10;;;9.80;99.90;;;;;;5032270;28;20301;-73
2022/10/13 02:39:26;;;;;;;0.10;0.10;;;9.90;99.90;;;;;;5029972;28;20215;-73
2022/10/13 02:41:54;;;;;;;0.10;0.10;;;9.90;99.90;;;;;;5033610;28;20223;-73
2022/10/13 02:44:23;;;;;;;0.00;0.00;;;10.00;99.90;;;;;;5035337;28;20289;-73
2022/10/13 02:46:51;;;;;;;0.10;0.10;;;10.10;99.90;;;;;;5031767;28;20239;-72
2022/10/13 02:49:20;;;;;;;0.00;0.00;;;10.20;99.90;;;;;;5033471;28;20207;-73
2022/10/13 02:51:48;;;;;;;0.10;0.10;;;10.20;99.90;;;;;;5033980;28;20199;-74
2022/10/13 02:54:16;;;;;;;0.00;0.00;;;10.20;99.90;;;;;;5033004;28;20317;-73
2022/10/13 02:56:44;;;;;;;0.03;0.03;;;10.10;99.90;;;;;;5029271;28;20234;-73
2022/10/13 02:59:12;;;;;;;0.10;0.10;;;10.10;99.90;;;;;;5032188;28;20226;-74
2022/10/13 03:01:41;;;;;;;0.10;0.10;;;10.00;99.90;;;;;;5032345;28;20199;-74
2022/10/13 03:04:08;;;;;;;0.10;0.10;;;9.90;99.90;;;;;;5032192;28;20226;-75
2022/10/13 03:06:38;;;;;;;0.10;0.10;;;9.80;99.90;;;;;;5031231;28;20223;-75
2022/10/13 03:09:07;;;;;;;0.10;0.10;;;9.80;99.90;;;;;;5031999;28;20198;-75
2022/10/13 03:11:35;;;;;;;0.08;0.08;;;9.90;99.90;;;;;;5030541;28;20211;-74
2022/10/13 03:14:03;;;;;;;0.10;0.10;;;10.00;99.90;;;;;;5031276;28;20222;-75
2022/10/13 03:16:31;;;;;;;0.10;0.10;;;9.90;99.90;;;;;;5031342;28;20256;-76
2022/10/13 03:18:59;;;;;;;0.10;0.10;;;9.70;99.90;;;;;;5031391;28;20222;-74
2022/10/13 03:21:27;;;;;;;0.10;0.10;;;9.60;99.90;;;;;;5030734;28;20250;-74
2022/10/13 03:23:56;;;;;;;0.10;0.10;;;9.60;99.90;;;;;;5031920;28;20222;-74
2022/10/13 03:26:25;;;;;;;0.10;0.10;;;9.60;99.90;;;;;;5029674;28;20222;-74
2022/10/13 03:28:53;;;;;;;0.10;0.10;;;9.60;99.90;;;;;;5030561;28;20619;-74
2022/10/13 03:31:21;;;;;;;0.00;0.00;;;9.60;99.90;;;;;;5031646;28;20608;-74
2022/10/13 03:33:51;;;;;;;0.10;0.10;;;9.60;99.90;;;;;;5033780;28;20199;-74
2022/10/13 03:36:19;;;;;;;0.10;0.10;;;9.60;99.90;;;;;;5032573;28;20231;-74
2022/10/13 03:38:48;;;;;;;0.00;0.00;;;9.60;99.90;;;;;;5032845;28;20194;-74
2022/10/13 03:41:19;;;;;;;0.10;0.10;;;9.60;99.90;;;;;;5029989;28;20203;-74
2022/10/13 03:43:49;;;;;;;0.10;0.10;;;9.70;99.90;;;;;;5032479;28;20595;-74
2022/10/13 03:46:18;;;;;;;0.10;0.10;;;9.80;99.90;;;;;;5037628;28;20285;-74
2022/10/13 03:48:47;;;;;;;0.10;0.10;;;9.80;99.90;;;;;;5033843;28;20198;-74
2022/10/13 03:51:19;;;;;;;0.10;0.10;;;9.90;99.90;;;;;;5028922;28;20204;-74
2022/10/13 03:53:49;;;;;;;0.10;0.10;;;9.90;99.90;;;;;;5034745;28;20183;-75
2022/10/13 03:56:21;;;;;;;0.00;0.00;;;9.90;99.90;;;;;;5031173;28;20235;-75
2022/10/13 03:58:54;;;;;;;0.00;0.00;;;10.10;99.90;;;;;;5031163;28;20205;-75
2022/10/13 04:01:23;;;;;;;0.00;0.00;;;10.00;99.90;;;;;;5033644;28;20199;-75
2022/10/13 04:03:52;;;;;;;0.10;0.10;;;9.90;99.90;;;;;;5032306;28;20289;-75
2022/10/13 04:06:21;;;;;;;0.00;0.00;;;9.70;99.90;;;;;;5034069;28;20223;-75
2022/10/13 04:08:49;;;;;;;0.05;0.05;;;9.80;99.90;;;;;;5035664;28;20796;-75
2022/10/13 04:11:19;;;;;;;0.10;0.10;;;9.70;99.90;;;;;;5033739;28;20199;-74
2022/10/13 04:13:51;;;;;;;0.10;0.10;;;9.60;99.90;;;;;;5031981;28;20179;-74
2022/10/13 04:16:22;;;;;;;0.10;0.10;;;9.80;99.90;;;;;;5031740;28;20231;-74
2022/10/13 04:18:51;;;;;;;0.10;0.10;;;9.70;99.90;;;;;;5031320;28;20223;-75
2022/10/13 04:21:20;;;;;;;0.10;0.10;;;9.70;99.90;;;;;;5031211;28;20285;-75
2022/10/13 04:23:48;;;;;;;0.10;0.10;;;9.80;99.90;;;;;;5031598;28;20266;-75
2022/10/13 04:26:17;;;;;;;0.05;0.05;;;9.90;99.90;;;;;;5029549;28;20644;-74
2022/10/13 04:28:48;;;;;;;0.10;0.10;;;10.00;99.90;;;;;;5032208;28;20245;-76
2022/10/13 04:31:16;;;;;;;0.10;0.10;;;10.00;99.90;;;;;;5032322;28;20616;-75
2022/10/13 04:33:44;;;;;;;0.10;0.10;;;10.00;99.90;;;;;;5031295;28;20206;-75
2022/10/13 04:36:14;;;;;;;0.00;0.00;;;10.00;99.90;;;;;;5028616;28;20227;-74
2022/10/13 04:38:43;;;;;;;0.10;0.10;;;10.10;99.90;;;;;;5033771;28;20230;-75
2022/10/13 04:41:12;;;;;;;0.10;0.10;;;10.10;99.90;;;;;;5028063;28;20202;-75
2022/10/13 04:43:40;;;;;;;0.10;0.10;;;10.10;99.90;;;;;;5030690;28;20215;-75
2022/10/13 04:46:12;;;;;;;0.10;0.10;;;10.10;99.90;;;;;;5029082;28;20245;-75
2022/10/13 04:48:41;;;;;;;0.10;0.10;;;10.20;99.90;;;;;;5030845;28;20203;-75
2022/10/13 04:51:10;;;;;;;0.10;0.10;;;10.20;99.90;;;;;;5028315;28;20261;-75
2022/10/13 04:53:39;;;;;;;0.00;0.00;;;10.30;99.90;;;;;;5029903;28;20191;-75
2022/10/13 04:56:13;;;;;;;0.00;0.00;;;10.40;99.90;;;;;;5052856;22;20231;-76
2022/10/13 04:58:42;;;;;;;0.10;0.10;;;10.40;99.90;;;;;;5024812;28;20196;-77
2022/10/13 05:01:16;;;;;;;0.10;0.10;;;10.50;99.90;;;;;;5030511;28;20203;-76
2022/10/13 05:03:53;;;;;;;0.10;0.10;;;10.40;99.90;;;;;;5063757;28;20654;-76
2022/10/13 05:06:22;;;;;;;0.10;0.10;;;10.40;99.90;;;;;;5032389;28;20325;-76
2022/10/13 05:08:56;;;;;;;0.10;0.10;;;10.30;99.90;;;;;;5031772;28;20202;-75
2022/10/13 05:11:25;;;;;;;0.10;0.10;;;10.30;99.90;;;;;;5042582;28;20188;-75
2022/10/13 05:13:54;;;;;;;0.00;0.00;;;10.30;99.90;;;;;;5035504;28;20269;-75
2022/10/13 05:16:23;;;;;;;0.10;0.10;;;10.30;99.90;;;;;;5026074;28;20224;-77
2022/10/13 05:18:54;;;;;;;0.10;0.10;;;10.30;99.90;;;;;;5016393;28;20254;-77
2022/10/13 05:21:23;;;;;;;0.10;0.10;;;10.30;99.90;;;;;;5019168;28;20200;-76
2022/10/13 05:23:53;;;;;;;0.10;0.10;;;10.30;99.90;;;;;;5018452;28;20678;-76
2022/10/13 05:26:22;;;;;;;0.10;0.10;;;10.20;99.90;;;;;;5019608;28;20273;-76
2022/10/13 05:28:51;;;;;;;0.10;0.10;;;10.10;99.90;;;;;;5019174;28;20545;-76
2022/10/13 05:31:21;;;;;;;0.10;0.10;;;10.00;99.90;;;;;;5056769;28;20206;-75
2022/10/13 05:33:52;;;;;;;0.00;0.00;;;10.10;99.90;;;;;;5022435;28;20200;-77
2022/10/13 05:36:24;;;;;;;0.10;0.10;;;10.10;99.90;;;;;;5001349;28;20270;-76
2022/10/13 05:38:53;;;;;;;0.10;0.10;;;10.10;99.90;;;;;;5010692;28;20323;-77
2022/10/13 05:41:25;;;;;;;0.10;0.10;;;10.20;99.90;;;;;;5016116;28;20207;-77
2022/10/13 05:43:57;;;;;;;0.10;0.10;;;10.20;99.90;;;;;;5004699;28;20232;-76
2022/10/13 05:46:26;;;;;;;0.10;0.10;;;10.30;99.90;;;;;;5007671;28;20781;-77
2022/10/13 05:48:55;;;;;;;0.10;0.10;;;10.30;99.90;;;;;;5013426;28;20674;-77
2022/10/13 05:51:26;;;;;;;0.10;0.10;;;10.20;99.90;;;;;;5005763;28;20698;-76
2022/10/13 05:54:00;;;;;;;0.00;0.00;;;10.20;99.90;;;;;;4995615;28;20199;-77
2022/10/13 05:56:34;;;;;;;0.10;0.10;;;10.10;99.90;;;;;;4995040;28;20228;-76
2022/10/13 05:59:06;;;;;;;0.10;0.10;;;10.10;99.90;;;;;;4994610;28;20266;-77
2022/10/13 06:01:37;;;;;;;0.10;0.10;;;10.00;99.90;;;;;;4992583;28;20605;-76
2022/10/13 06:04:09;;;;;;;0.10;0.10;;;10.00;99.90;;;;;;4994513;28;20220;-77
2022/10/13 06:06:38;;;;;;;0.08;0.08;;;10.10;99.90;;;;;;4994484;28;20699;-77
2022/10/13 06:09:06;;;;;;;0.10;0.10;;;10.10;99.90;;;;;;4994894;28;20380;-76
2022/10/13 06:11:34;;;;;;;0.10;0.10;;;10.10;99.90;;;;;;4997077;28;20204;-77
2022/10/13 06:14:02;;;;;;;0.10;0.10;;;10.10;99.90;;;;;;4998801;28;20208;-76
2022/10/13 06:16:30;;;;;;;0.10;0.10;;;10.10;99.90;;;;;;5003999;28;20227;-76
2022/10/13 06:18:58;;;;;;;0.10;0.10;;;10.20;99.90;;;;;;5012128;28;20207;-76
2022/10/13 06:21:28;;;;;;;0.10;0.10;;;10.20;99.90;;;;;;4999483;28;20682;-76
2022/10/13 06:23:56;;;;;;;0.10;0.10;;;10.30;99.90;;;;;;4995498;28;20205;-76
2022/10/13 06:26:24;;;;;;;0.10;0.10;;;10.30;99.90;;;;;;4994987;28;20259;-76
2022/10/13 06:28:51;;;;;;;0.10;0.10;;;10.40;99.90;;;;;;4994348;28;20204;-76
2022/10/13 06:31:27;;;;;;;0.10;0.10;;;10.40;99.90;;;;;;4995360;28;20279;-78
2022/10/13 06:33:55;;;;;;;0.10;0.10;;;10.50;99.90;;;;;;4996597;28;20275;-77
2022/10/13 06:36:23;;;;;;;0.10;0.10;;;10.50;99.90;;;;;;4995344;28;20216;-77
2022/10/13 06:38:52;;;;;;;0.10;0.10;;;10.60;99.90;;;;;;4999137;28;20200;-77
2022/10/13 06:41:21;;;;;;;0.10;0.10;;;10.70;99.90;;;;;;5003783;28;20196;-77
2022/10/13 06:43:49;;;;;;;0.10;0.10;;;10.80;99.90;;;;;;4995062;28;20712;-79
2022/10/13 06:46:17;;;;;;;0.10;0.10;;;10.80;99.90;;;;;;4995052;28;20213;-77
2022/10/13 06:48:45;;;;;;;0.00;0.00;;;10.90;99.90;;;;;;4995539;28;20255;-76
2022/10/13 06:51:13;;;;;;;0.10;0.10;;;11.00;99.90;;;;;;4993262;28;20204;-78
2022/10/13 06:53:40;;;;;;;0.10;0.10;;;11.10;99.90;;;;;;4996377;28;20655;-78
2022/10/13 06:56:10;;;;;;;0.10;0.10;;;11.10;99.90;;;;;;4995711;28;20251;-77
2022/10/13 06:58:38;;;;;;;0.00;0.00;;;11.20;99.90;;;;;;4994898;28;20192;-76
2022/10/13 07:01:07;;;;;;;0.10;0.10;;;11.30;99.90;;;;;;4995028;28;20227;-75
2022/10/13 07:03:35;;;;;;;0.10;0.10;;;11.20;99.90;;;;;;4994650;28;20204;-76
2022/10/13 07:06:05;;;;;;;0.10;0.10;;;11.30;99.90;;;;;;4994893;28;20224;-77
2022/10/13 07:08:34;;;;;;;0.00;0.00;;;11.40;99.90;;;;;;4994415;28;20204;-77
2022/10/13 07:11:07;;;;;;;0.10;0.10;;;11.40;99.90;;;;;;4995030;28;20250;-77
2022/10/13 07:13:44;;;;;;;0.10;0.10;;;11.50;99.90;;;;;;4995041;28;20204;-77
2022/10/13 07:16:15;;;;;;;0.10;0.10;;;11.50;99.90;;;;;;4994378;28;20212;-77
2022/10/13 07:18:43;;;;;;;0.05;0.05;;;11.50;99.90;;;;;;4994556;28;20201;-75
2022/10/13 07:21:11;;;;;;;0.10;0.10;;;11.60;99.90;;;;;;4994375;28;20196;-76
2022/10/13 07:23:38;;;;;;;0.10;0.10;;;11.60;99.90;;;;;;4995072;28;20247;-77
2022/10/13 07:26:08;;;;;;;0.10;0.10;;;11.70;99.90;;;;;;4995528;28;20224;-77
2022/10/13 07:28:36;;;;;;;0.10;0.10;;;11.70;99.90;;;;;;4997269;28;20676;-77
2022/10/13 07:31:10;;;;;;;0.08;0.08;;;11.80;99.90;;;;;;5001548;28;20295;-77
2022/10/13 07:33:39;;;;;;;0.10;0.10;;;11.80;99.90;;;;;;4995482;28;20262;-76
2022/10/13 07:36:08;;;;;;;0.10;0.10;;;11.80;99.90;;;;;;4997085;28;20298;-77
2022/10/13 07:38:36;;;;;;;0.10;0.10;;;11.90;99.90;;;;;;5014370;28;20203;-75
2022/10/13 07:41:05;;;;;;;0.00;0.00;;;11.90;99.90;;;;;;5013059;28;20266;-77
2022/10/13 07:43:33;;;;;;;0.03;0.03;;;12.00;99.90;;;;;;5014497;28;20215;-77
2022/10/13 07:46:05;;;;;;;0.00;0.00;;;12.10;99.90;;;;;;5014341;28;20279;-76
2022/10/13 07:48:36;;;;;;;0.10;0.10;;;12.10;99.90;;;;;;5013990;28;20204;-77
2022/10/13 07:51:06;;;;;;;0.00;0.00;;;12.20;99.90;;;;;;5012143;28;20249;-77
2022/10/13 07:53:34;;;;;;;0.10;0.10;;;12.20;99.90;;;;;;5013427;28;20204;-76
2022/10/13 07:56:03;;;;;;;0.00;0.00;;;12.30;99.90;;;;;;5015541;28;20702;-76
2022/10/13 07:58:32;;;;;;;0.10;0.10;;;12.40;99.90;;;;;;5014706;28;20200;-76
2022/10/13 08:01:03;;;;;;;0.10;0.10;;;12.40;99.90;;;;;;5018246;28;20655;-76
2022/10/13 08:03:32;;;;;;;0.10;0.10;;;12.40;99.90;;;;;;5015950;28;20230;-76
2022/10/13 08:06:03;;;;;;;0.00;0.00;;;12.50;99.90;;;;;;5015447;28;20634;-77
2022/10/13 08:08:31;;;;;;;0.10;0.10;;;12.60;99.90;;;;;;5012253;28;20211;-76
2022/10/13 08:11:02;;;;;;;0.10;0.10;;;12.60;99.90;;;;;;5014102;28;20191;-77
2022/10/13 08:13:31;;;;;;;0.10;0.10;;;12.60;99.90;;;;;;5013009;28;20239;-77
2022/10/13 08:16:08;;;;;;;0.10;0.10;;;12.60;99.90;;;;;;5014140;28;20211;-76
2022/10/13 08:18:36;;;;;;;0.00;0.00;;;12.60;99.90;;;;;;5012608;28;20274;-76
2022/10/13 08:21:05;;;;;;;0.08;0.08;;;12.70;99.90;;;;;;5013978;28;20195;-76
2022/10/13 08:23:53;;;;;;;0.00;0.00;;;12.70;99.90;;;;;;5013143;28;20296;-76
2022/10/13 08:26:24;;;;;;;0.00;0.00;;;12.70;99.90;;;;;;5012915;28;20231;-76
2022/10/13 08:28:53;;;;;;;0.10;0.10;;;12.80;99.90;;;;;;5013108;28;20278;-77
2022/10/13 08:31:41;;;;;;;0.10;0.10;;;12.80;99.90;;;;;;5012635;28;20294;-75
2022/10/13 08:34:10;;;;;;;0.00;0.00;;;12.80;99.90;;;;;;5014154;28;20195;-77
2022/10/13 08:36:39;;;;;;;0.10;0.10;;;12.90;99.90;;;;;;5013529;28;20207;-77
2022/10/13 08:39:07;;;;;;;0.10;0.10;;;12.90;99.90;;;;;;5013730;28;20747;-76
2022/10/13 08:41:38;;;;;;;0.10;0.10;;;12.90;99.90;;;;;;5014253;28;20233;-76
2022/10/13 08:44:07;;;;;;;0.00;0.00;;;13.00;99.90;;;;;;5014312;28;20196;-77
2022/10/13 08:47:01;;;;;;;0.00;0.00;;;13.00;99.90;;;;;;5012916;28;20232;-77
2022/10/13 08:49:30;;;;;;;0.00;0.00;;;13.10;99.90;;;;;;5015247;28;20196;-77
2022/10/13 08:52:03;;;;;;;0.00;0.00;;;13.20;99.90;;;;;;5013870;28;20207;-76
2022/10/13 08:54:33;;;;;;;0.10;0.10;;;13.30;99.90;;;;;;5017680;28;20261;-78
2022/10/13 08:57:01;;;;;;;0.10;0.10;;;13.40;99.90;;;;;;5016917;28;20273;-77
2022/10/13 08:59:29;;;;;;;0.00;0.00;;;13.40;99.90;;;;;;5018838;28;20196;-77
2022/10/13 09:01:58;;;;;;;0.00;0.00;;;13.50;99.90;;;;;;5018266;28;20230;-78
2022/10/13 09:04:30;;;;;;;0.10;0.10;;;13.50;99.90;;;;;;5017592;28;20670;-77
2022/10/13 09:07:05;;;;;;;0.10;0.10;;;13.60;99.90;;;;;;5018166;28;20231;-76
2022/10/13 09:09:33;;;;;;;0.00;0.00;;;13.60;99.90;;;;;;5018407;28;20207;-78
2022/10/13 09:12:02;;;;;;;0.00;0.00;;;13.70;99.90;;;;;;5018869;28;20257;-77
2022/10/13 09:14:32;;;;;;;0.10;0.10;;;13.70;99.90;;;;;;5020337;28;20581;-77
2022/10/13 09:17:17;;;;;;;0.00;0.00;;;13.70;99.90;;;;;;5021025;28;20290;-78
2022/10/13 09:19:56;;;;;;;0.00;0.00;;;13.70;99.90;;;;;;5019505;28;20199;-76
2022/10/13 09:22:28;;;;;;;0.10;0.10;;;13.80;99.90;;;;;;5027817;28;20191;-78
2022/10/13 09:25:09;;;;;;;0.00;0.00;;;13.80;99.90;;;;;;5034342;28;20234;-76
2022/10/13 09:27:43;;;;;;;0.00;0.00;;;13.80;99.90;;;;;;5034255;28;20232;-76
2022/10/13 09:30:27;;;;;;;0.00;0.00;;;13.80;99.90;;;;;;5026301;28;20188;-76
2022/10/13 09:33:18;;;;;;;0.00;0.00;;;13.80;99.90;;;;;;5025159;28;20207;-76
2022/10/13 09:35:48;;;;;;;0.00;0.00;;;13.90;99.90;;;;;;5018443;28;20252;-77
2022/10/13 09:38:19;;;;;;;0.00;0.00;;;13.90;99.90;;;;;;5019334;28;20196;-77
2022/10/13 09:41:02;;;;;;;0.10;0.10;;;14.00;99.90;;;;;;5018851;28;20192;-77
2022/10/13 09:43:34;;;;;;;0.00;0.00;;;14.00;99.90;;;;;;5017971;28;20234;-77
2022/10/13 09:46:10;;;;;;;0.00;0.00;;;14.10;99.90;;;;;;5019381;28;20669;-76
2022/10/13 09:48:41;;;;;;;0.00;0.00;;;14.10;99.90;;;;;;5019214;28;20204;-77
2022/10/13 09:51:29;;;;;;;0.00;0.00;;;14.10;99.90;;;;;;5020534;28;20259;-78
2022/10/13 09:53:59;;;;;;;0.00;0.00;;;14.10;99.90;;;;;;5018410;28;20663;-77
2022/10/13 09:56:31;;;;;;;0.00;0.00;;;14.10;99.90;;;;;;5021441;28;20242;-77
2022/10/13 09:59:07;;;;;;;0.00;0.00;;;14.10;99.90;;;;;;5020432;28;20796;-77
2022/10/13 10:01:39;;;;;;;0.00;0.00;;;14.10;99.90;;;;;;5020477;28;20202;-77
2022/10/13 10:04:17;;;;;;;0.00;0.00;;;14.10;99.90;;;;;;5021832;28;20198;-77
2022/10/13 10:06:46;;;;;;;0.00;0.00;;;14.10;99.90;;;;;;5021872;28;20203;-77
2022/10/13 10:09:34;;;;;;;0.05;0.05;;;14.10;99.90;;;;;;5023570;28;20200;-77
2022/10/13 10:12:04;;;;;;;0.00;0.00;;;14.10;99.90;;;;;;5023996;28;20210;-77
2022/10/13 10:14:36;;;;;;;0.10;0.10;;;14.20;99.90;;;;;;5021305;28;20609;-76
2022/10/13 10:17:16;;;;;;;0.10;0.10;;;14.20;99.90;;;;;;5021908;28;20212;-78
2022/10/13 10:19:53;;;;;;;0.10;0.10;;;14.20;99.90;;;;;;5018537;28;20208;-77
2022/10/13 10:22:33;;;;;;;0.00;0.00;;;14.20;99.90;;;;;;5013858;28;20234;-77
2022/10/13 10:25:17;;;;;;;0.00;0.00;;;14.20;99.90;;;;;;5016479;28;20251;-77
2022/10/13 10:28:00;;;;;;;0.10;0.10;;;14.20;99.90;;;;;;5020307;28;20215;-76
2022/10/13 10:30:31;;;;;;;0.00;0.00;;;14.20;99.90;;;;;;5011375;28;20204;-77
2022/10/13 10:33:06;;;;;;;0.00;0.00;;;14.20;99.90;;;;;;4999103;28;20204;-77
2022/10/13 10:35:44;;;;;;;0.10;0.10;;;14.20;99.90;;;;;;5000928;28;20195;-78
2022/10/13 10:38:23;;;;;;;0.00;0.00;;;14.20;99.90;;;;;;5000903;28;20200;-77
2022/10/13 10:41:03;;;;;;;0.00;0.00;;;14.20;99.90;;;;;;5001166;28;20208;-77
2022/10/13 10:43:51;;;;;;;0.00;0.00;;;14.20;99.90;;;;;;5001937;28;20202;-76
2022/10/13 10:46:23;;;;;;;0.00;0.00;;;14.20;99.90;;;;;;5000329;28;20275;-77
2022/10/13 10:48:55;;;;;;;0.10;0.10;;;14.20;99.90;;;;;;4999409;28;20207;-77
2022/10/13 10:51:30;;;;;;;0.00;0.00;;;14.20;99.90;;;;;;5004961;28;20200;-77
2022/10/13 10:54:07;;;;;;;0.00;0.00;;;14.20;99.90;;;;;;4999390;28;20255;-76
2022/10/13 10:56:38;;;;;;;0.00;0.00;;;14.20;99.90;;;;;;4999233;28;20224;-76
2022/10/13 10:59:25;;;;;;;0.00;0.00;;;14.30;99.90;;;;;;5002722;28;20252;-77
2022/10/13 11:02:04;;;;;;;0.00;0.00;;;14.30;99.90;;;;;;5000375;28;20211;-76
2022/10/13 11:04:40;;;;;;;0.00;0.00;;;14.30;99.90;;;;;;5007807;28;20264;-76
2022/10/13 11:07:11;;;;;;;0.00;0.00;;;14.30;99.90;;;;;;5017286;28;20259;-76
2022/10/13 11:10:03;;;;;;;0.10;0.10;;;14.40;99.90;;;;;;5016494;28;20256;-76
2022/10/13 11:13:14;;;;;;;0.10;0.10;;;14.40;99.90;;;;;;5016925;28;20212;-76
2022/10/13 11:15:44;;;;;;;0.10;0.10;;;14.40;99.90;;;;;;5007573;28;20247;-76
2022/10/13 11:18:49;;;;;;;0.00;0.00;;;14.50;99.90;;;;;;5003555;28;20260;-76
2022/10/13 11:21:18;;;;;;;0.08;0.08;;;14.60;99.90;;;;;;5002962;28;20211;-77
2022/10/13 11:23:47;;;;;;;0.00;0.00;;;14.70;99.90;;;;;;5004817;28;20219;-76
2022/10/13 11:26:40;;;;;;;0.00;0.00;;;14.80;99.90;;;;;;5006397;28;20220;-76
2022/10/13 11:29:19;;;;;;;0.00;0.00;;;14.80;99.90;;;;;;5004447;28;20192;-77
2022/10/13 11:31:51;;;;;;;0.00;0.00;;;14.80;99.90;;;;;;5003974;28;20192;-76
2022/10/13 11:34:28;;;;;;;0.00;0.00;;;14.70;99.90;;;;;;5004168;28;20207;-76
2022/10/13 11:36:59;;;;;;;0.00;0.00;;;14.70;99.90;;;;;;5004943;28;20220;-76
2022/10/13 11:40:00;;;;;;;0.00;0.00;;;14.70;99.90;;;;;;5004195;28;20208;-77
2022/10/13 11:42:45;;;;;;;0.00;0.00;;;14.80;99.90;;;;;;5004098;28;20200;-76
2022/10/13 11:45:25;;;;;;;0.00;0.00;;;14.90;99.90;;;;;;5003877;28;20203;-77
2022/10/13 11:48:19;;;;;;;0.00;0.00;;;15.00;99.90;;;;;;5000034;28;20223;-77
2022/10/13 11:50:59;;;;;;;0.00;0.00;;;15.10;99.90;;;;;;5001760;28;20197;-77
2022/10/13 11:53:32;;;;;;;0.00;0.00;;;15.30;99.90;;;;;;5002593;28;20200;-78
2022/10/13 11:56:01;;;;;;;0.00;0.00;;;15.40;99.90;;;;;;5001699;28;20236;-76
2022/10/13 11:58:30;;;;;;;0.00;0.00;;;15.50;99.90;;;;;;5000938;28;20193;-77
2022/10/13 12:01:05;;;;;;;0.00;0.00;;;15.60;99.90;;;;;;5000152;28;20191;-77
2022/10/13 12:03:34;;;;;;;0.00;0.00;;;15.70;99.90;;;;;;4996585;28;20239;-76
2022/10/13 12:06:05;;;;;;;0.00;0.00;;;15.70;99.90;;;;;;4994470;28;20228;-77
2022/10/13 12:08:35;;;;;;;0.00;0.00;;;15.70;99.90;;;;;;4995576;28;20286;-77
2022/10/13 12:11:07;;;;;;;0.00;0.00;;;15.60;99.90;;;;;;4995740;28;20271;-77
2022/10/13 12:13:36;;;;;;;0.00;0.00;;;15.50;99.90;;;;;;4995840;28;20192;-77
2022/10/13 12:16:07;;;;;;;0.00;0.00;;;15.50;99.90;;;;;;4995941;28;20240;-77
2022/10/13 12:18:37;;;;;;;0.00;0.00;;;15.40;99.90;;;;;;4996638;28;20203;-77
2022/10/13 12:21:11;;;;;;;0.03;0.03;;;15.30;99.90;;;;;;4996983;28;20196;-77
2022/10/13 12:23:39;;;;;;;0.00;0.00;;;15.30;99.90;;;;;;4998340;28;20675;-76
2022/10/13 12:26:08;;;;;;;0.00;0.00;;;15.20;99.90;;;;;;5018105;28;20224;-76
2022/10/13 12:28:50;;;;;;;0.00;0.00;;;15.10;99.90;;;;;;5023884;28;20220;-76
2022/10/13 12:31:22;;;;;;;0.00;0.00;;;15.10;99.90;;;;;;5039257;28;20572;-76
2022/10/13 12:33:55;;;;;;;0.00;0.00;;;15.20;99.90;;;;;;5038998;28;20198;-77
2022/10/13 12:36:27;;;;;;;0.00;0.00;;;15.20;99.90;;;;;;5038129;28;20245;-77
2022/10/13 12:39:01;;;;;;;0.00;0.00;;;15.20;99.90;;;;;;5036687;28;20206;-77
2022/10/13 12:41:31;;;;;;;0.00;0.00;;;15.20;99.90;;;;;;5036702;28;20537;-76
2022/10/13 12:44:00;;;;;;;0.00;0.00;;;15.30;99.90;;;;;;5036664;28;20202;-77
2022/10/13 12:46:40;;;;;;;0.00;0.00;;;15.30;99.90;;;;;;5036742;28;20288;-77
2022/10/13 12:49:14;;;;;;;0.00;0.00;;;15.20;99.90;;;;;;5036162;28;20225;-76
2022/10/13 12:51:44;;;;;;;0.00;0.00;;;15.10;99.90;;;;;;5036209;28;20220;-76
2022/10/13 12:54:22;;;;;;;0.00;0.00;;;15.10;99.90;;;;;;5037653;28;20625;-77
2022/10/13 12:56:52;;;;;;;0.00;0.00;;;15.00;99.90;;;;;;5036555;28;20224;-77
2022/10/13 12:59:25;;;;;;;0.00;0.00;;;15.10;99.90;;;;;;5007829;28;20298;-77
2022/10/13 13:01:57;;;;;;;0.00;0.00;;;15.10;99.90;;;;;;4998189;28;20203;-77
2022/10/13 13:04:40;;;;;;;0.00;0.00;;;15.00;99.90;;;;;;4997360;28;20659;-77
2022/10/13 13:07:29;;;;;;;0.00;0.00;;;15.00;99.90;;;;;;5012186;28;20907;-76
2022/10/13 13:10:08;;;;;;;0.00;0.00;;;14.90;99.90;;;;;;5019110;28;20203;-77
2022/10/13 13:12:37;;;;;;;0.00;0.00;;;14.80;99.90;;;;;;5017536;28;20249;-76
2022/10/13 13:15:32;;;;;;;0.08;0.08;;;14.80;99.90;;;;;;5017570;28;20195;-76
2022/10/13 13:18:29;;;;;;;0.00;0.00;;;14.80;99.90;;;;;;5018571;28;20195;-76